createdAt,value
2022-12-29T00:00:07.907Z,38.22
2022-12-29T00:03:00.253Z,37.95
2022-12-29T00:05:46.506Z,36.40
2022-12-29T00:08:41.835Z,38.22
2022-12-29T00:11:28.728Z,38.15
2022-12-29T00:14:33.238Z,36.50
2022-12-29T00:17:19.837Z,38.10
2022-12-29T00:20:24.764Z,36.78
2022-12-29T00:23:29.210Z,38.83
2022-12-29T00:26:36.070Z,37.85
2022-12-29T00:29:40.082Z,37.35
2022-12-29T00:32:45.688Z,37.70
2022-12-29T00:35:43.847Z,37.50
2022-12-29T00:38:51.785Z,38.10
2022-12-29T00:41:56.643Z,36.72
2022-12-29T00:45:16.752Z,37.15
2022-12-29T00:48:44.128Z,37.83
2022-12-29T00:51:30.433Z,35.72
2022-12-29T00:54:18.179Z,37.22
2022-12-29T00:57:06.426Z,39.28
2022-12-29T00:59:53.926Z,38.13
2022-12-29T01:02:40.302Z,39.65
2022-12-29T01:05:26.193Z,39.67
2022-12-29T01:08:11.930Z,38.03
2022-12-29T01:11:07.591Z,39.22
2022-12-29T01:13:53.419Z,38.40
2022-12-29T01:16:41.477Z,37.38
2022-12-29T01:19:28.336Z,37.37
2022-12-29T01:22:16.129Z,37.30
2022-12-29T01:25:05.299Z,37.47
2022-12-29T01:27:51.937Z,38.10
2022-12-29T01:30:37.671Z,36.90
2022-12-29T01:33:24.266Z,37.63
2022-12-29T01:36:13.586Z,38.70
2022-12-29T01:39:00.400Z,37.67
2022-12-29T01:41:46.986Z,38.45
2022-12-29T01:45:19.163Z,38.45
2022-12-29T01:48:09.941Z,36.85
2022-12-29T01:50:56.315Z,37.72
2022-12-29T01:53:42.635Z,37.92
2022-12-29T01:56:28.389Z,39.38
2022-12-29T01:59:19.395Z,38.67
2022-12-29T02:02:07.525Z,36.92
2022-12-29T02:05:00.154Z,39.58
2022-12-29T02:07:51.594Z,38.33
2022-12-29T02:10:37.876Z,39.17
2022-12-29T02:13:26.255Z,37.70
2022-12-29T02:16:42.035Z,36.92
2022-12-29T02:19:28.188Z,38.00
2022-12-29T02:22:16.421Z,38.97
2022-12-29T02:25:42.769Z,38.88
2022-12-29T02:29:00.595Z,38.17
2022-12-29T02:32:04.684Z,38.80
2022-12-29T02:34:50.844Z,37.58
2022-12-29T02:37:52.988Z,38.20
2022-12-29T02:40:54.898Z,38.38
2022-12-29T02:44:15.938Z,37.45
2022-12-29T02:47:32.137Z,39.15
2022-12-29T02:50:28.142Z,38.63
2022-12-29T02:53:38.797Z,38.47
2022-12-29T02:56:24.395Z,35.17
2022-12-29T02:59:13.218Z,37.15
2022-12-29T03:02:30.684Z,38.35
2022-12-29T03:05:44.938Z,38.03
2022-12-29T03:08:40.808Z,39.27
2022-12-29T03:11:53.319Z,37.97
2022-12-29T03:15:02.168Z,39.58
2022-12-29T03:17:54.697Z,39.45
2022-12-29T03:21:05.765Z,38.08
2022-12-29T03:23:52.845Z,38.00
2022-12-29T03:26:40.002Z,38.67
2022-12-29T03:29:28.691Z,38.60
2022-12-29T03:32:15.929Z,38.75
2022-12-29T03:35:07.179Z,37.57
2022-12-29T03:38:00.840Z,39.10
2022-12-29T03:40:51.263Z,37.90
2022-12-29T03:43:37.136Z,35.03
2022-12-29T03:46:23.060Z,38.30
2022-12-29T03:49:10.005Z,36.97
2022-12-29T03:51:56.748Z,37.30
2022-12-29T03:54:43.373Z,37.67
2022-12-29T03:57:29.375Z,38.65
2022-12-29T04:00:21.894Z,38.30
2022-12-29T04:03:09.996Z,38.70
2022-12-29T04:05:56.160Z,38.63
2022-12-29T04:08:42.566Z,37.75
2022-12-29T04:11:32.997Z,38.25
2022-12-29T04:14:20.465Z,39.67
2022-12-29T04:17:06.650Z,37.28
2022-12-29T04:20:13.149Z,37.72
2022-12-29T04:23:07.570Z,37.17
2022-12-29T04:25:54.673Z,37.53
2022-12-29T04:28:41.182Z,38.95
2022-12-29T04:32:05.912Z,38.75
2022-12-29T04:34:54.609Z,40.17
2022-12-29T04:37:40.440Z,39.00
2022-12-29T04:40:26.883Z,37.17
2022-12-29T04:43:14.055Z,37.88
2022-12-29T04:46:31.862Z,37.97
2022-12-29T04:49:30.533Z,37.15
2022-12-29T04:52:35.991Z,38.10
2022-12-29T04:55:22.523Z,38.42
2022-12-29T04:58:09.597Z,37.97
2022-12-29T05:00:56.098Z,37.53
2022-12-29T05:03:44.592Z,38.92
2022-12-29T05:06:30.651Z,37.40
2022-12-29T05:09:16.211Z,37.43
2022-12-29T05:12:05.008Z,36.80
2022-12-29T05:14:52.694Z,35.05
2022-12-29T05:17:38.697Z,35.53
2022-12-29T05:20:25.939Z,36.40
2022-12-29T05:23:12.591Z,34.85
2022-12-29T05:25:59.221Z,36.00
2022-12-29T05:29:11.528Z,35.55
2022-12-29T05:31:57.945Z,37.17
2022-12-29T05:34:44.622Z,36.05
2022-12-29T05:37:30.806Z,38.70
2022-12-29T05:40:16.823Z,37.17
2022-12-29T05:43:04.095Z,38.20
2022-12-29T05:46:00.753Z,37.75
2022-12-29T05:49:02.487Z,39.05
2022-12-29T05:52:06.127Z,38.60
2022-12-29T05:54:53.549Z,37.30
2022-12-29T05:57:42.183Z,35.53
2022-12-29T06:00:32.843Z,36.35
2022-12-29T06:03:19.090Z,36.28
2022-12-29T06:06:06.355Z,36.88
2022-12-29T06:08:52.522Z,35.72
2022-12-29T06:11:38.780Z,36.33
2022-12-29T06:14:24.667Z,36.10
2022-12-29T06:17:11.605Z,37.05
2022-12-29T06:19:57.773Z,35.10
2022-12-29T06:22:44.591Z,37.38
2022-12-29T06:25:33.231Z,34.50
2022-12-29T06:28:19.863Z,34.80
2022-12-29T06:31:05.950Z,34.05
2022-12-29T06:33:51.961Z,37.13
2022-12-29T06:36:38.271Z,35.78
2022-12-29T06:39:24.519Z,37.00
2022-12-29T06:42:24.678Z,36.47
2022-12-29T06:45:32.858Z,37.87
2022-12-29T06:48:19.288Z,36.85
2022-12-29T06:51:05.149Z,36.45
2022-12-29T06:53:51.357Z,36.15
2022-12-29T06:56:37.003Z,36.42
2022-12-29T06:59:22.931Z,36.53
2022-12-29T07:02:11.896Z,36.30
2022-12-29T07:04:58.071Z,35.78
2022-12-29T07:07:44.598Z,37.15
2022-12-29T07:10:30.808Z,37.75
2022-12-29T07:13:16.714Z,37.28
2022-12-29T07:16:10.399Z,37.10
2022-12-29T07:18:57.256Z,36.55
2022-12-29T07:21:45.563Z,36.17
2022-12-29T07:24:31.917Z,36.80
2022-12-29T07:27:18.095Z,35.73
2022-12-29T07:30:04.262Z,36.38
2022-12-29T07:32:49.844Z,37.08
2022-12-29T07:35:36.301Z,34.78
2022-12-29T07:38:22.680Z,35.45
2022-12-29T07:41:09.886Z,36.00
2022-12-29T07:43:56.824Z,34.85
2022-12-29T07:47:12.749Z,36.45
2022-12-29T07:49:58.898Z,36.42
2022-12-29T07:52:45.805Z,34.90
2022-12-29T07:55:31.557Z,37.57
2022-12-29T07:58:17.602Z,35.70
2022-12-29T08:01:04.117Z,36.08
2022-12-29T08:03:56.887Z,34.80
2022-12-29T08:06:43.891Z,35.42
2022-12-29T08:09:29.968Z,34.67
2022-12-29T08:12:15.980Z,35.05
2022-12-29T08:15:02.225Z,35.05
2022-12-29T08:17:47.869Z,34.00
2022-12-29T08:20:35.004Z,33.75
2022-12-29T08:23:20.898Z,34.08
2022-12-29T08:26:07.851Z,34.78
2022-12-29T08:28:54.627Z,33.53
2022-12-29T08:31:41.596Z,35.58
2022-12-29T08:34:27.665Z,33.63
2022-12-29T08:37:14.183Z,35.42
2022-12-29T08:40:04.458Z,33.35
2022-12-29T08:42:50.227Z,33.35
2022-12-29T08:45:36.380Z,33.95
2022-12-29T08:48:23.193Z,33.50
2022-12-29T08:51:09.711Z,34.53
2022-12-29T08:53:55.748Z,33.40
2022-12-29T08:56:41.788Z,32.50
2022-12-29T08:59:28.457Z,33.28
2022-12-29T09:02:18.773Z,33.70
2022-12-29T09:05:08.776Z,33.20
2022-12-29T09:07:55.693Z,31.40
2022-12-29T09:10:41.471Z,32.15
2022-12-29T09:13:27.793Z,31.50
2022-12-29T09:16:14.015Z,31.70
2022-12-29T09:18:59.981Z,32.50
2022-12-29T09:21:45.590Z,32.25
2022-12-29T09:24:32.228Z,31.65
2022-12-29T09:27:18.540Z,32.17
2022-12-29T09:30:07.790Z,32.45
2022-12-29T09:32:55.495Z,32.47
2022-12-29T09:35:46.307Z,30.80
2022-12-29T09:38:32.551Z,30.50
2022-12-29T09:41:38.377Z,30.98
2022-12-29T09:44:26.917Z,30.30
2022-12-29T09:47:16.011Z,29.90
2022-12-29T09:50:28.146Z,30.17
2022-12-29T09:53:36.603Z,30.20
2022-12-29T09:56:24.547Z,29.92
2022-12-29T09:59:19.970Z,29.13
2022-12-29T10:02:32.856Z,29.13
2022-12-29T10:06:04.765Z,28.47
2022-12-29T10:09:02.792Z,29.08
2022-12-29T10:12:10.425Z,29.60
2022-12-29T10:15:23.651Z,27.70
2022-12-29T10:18:31.973Z,29.63
2022-12-29T10:21:39.091Z,27.53
2022-12-29T10:24:28.953Z,27.80
2022-12-29T10:27:17.913Z,26.13
2022-12-29T10:30:04.390Z,26.48
2022-12-29T10:32:55.777Z,26.23
2022-12-29T10:35:44.141Z,25.75
2022-12-29T10:38:50.375Z,25.38
2022-12-29T10:42:05.766Z,25.17
2022-12-29T10:44:52.173Z,24.60
2022-12-29T10:47:41.730Z,24.40
2022-12-29T10:50:30.479Z,23.67
2022-12-29T10:53:24.004Z,22.50
2022-12-29T10:56:23.142Z,22.43
2022-12-29T10:59:29.181Z,19.35
2022-12-29T11:02:46.646Z,18.58
2022-12-29T11:05:43.174Z,17.13
2022-12-29T11:08:34.920Z,16.80
2022-12-29T11:11:33.390Z,17.90
2022-12-29T11:14:22.701Z,17.45
2022-12-29T11:17:17.933Z,19.05
2022-12-29T11:20:20.976Z,18.23
2022-12-29T11:23:24.691Z,19.33
2022-12-29T11:26:33.631Z,20.02
2022-12-29T11:29:39.673Z,22.08
2022-12-29T11:32:28.851Z,22.30
2022-12-29T11:35:32.659Z,21.77
2022-12-29T11:38:26.505Z,22.17
2022-12-29T11:41:14.879Z,22.88
2022-12-29T11:44:03.530Z,22.05
2022-12-29T11:46:52.428Z,23.63
2022-12-29T11:49:39.844Z,22.23
2022-12-29T11:52:29.033Z,22.60
2022-12-29T11:55:26.546Z,22.52
2022-12-29T11:58:17.259Z,22.70
2022-12-29T12:02:22.998Z,24.23
2022-12-29T12:05:39.765Z,23.73
2022-12-29T12:08:48.358Z,22.85
2022-12-29T12:11:41.727Z,23.33
2022-12-29T12:14:33.175Z,24.50
2022-12-29T12:17:41.261Z,23.58
2022-12-29T12:20:44.343Z,25.23
2022-12-29T12:23:48.587Z,24.30
2022-12-29T12:26:38.991Z,22.83
2022-12-29T12:29:33.428Z,22.80
2022-12-29T12:32:33.172Z,22.15
2022-12-29T12:35:51.429Z,22.85
2022-12-29T12:39:01.445Z,22.25
2022-12-29T12:41:59.266Z,21.75
2022-12-29T12:44:58.069Z,22.10
2022-12-29T12:48:06.677Z,21.38
2022-12-29T12:50:59.923Z,20.75
2022-12-29T12:54:04.548Z,21.90
2022-12-29T12:57:29.105Z,21.30
2022-12-29T13:00:21.060Z,20.48
2022-12-29T13:03:21.199Z,20.98
2022-12-29T13:06:28.991Z,22.63
2022-12-29T13:09:35.571Z,20.73
2022-12-29T13:12:42.494Z,21.05
2022-12-29T13:15:37.999Z,20.90
2022-12-29T13:18:34.645Z,21.47
2022-12-29T13:22:05.728Z,20.27
2022-12-29T13:25:06.397Z,20.23
2022-12-29T13:28:15.450Z,19.15
2022-12-29T13:31:19.800Z,20.27
2022-12-29T13:34:34.523Z,20.42
2022-12-29T13:37:27.167Z,19.88
2022-12-29T13:40:19.833Z,20.30
2022-12-29T13:43:06.154Z,19.17
2022-12-29T13:46:02.631Z,20.85
2022-12-29T13:48:53.004Z,21.55
2022-12-29T13:51:48.518Z,20.55
2022-12-29T13:54:58.351Z,21.23
2022-12-29T13:57:54.463Z,22.85
2022-12-29T14:01:04.722Z,22.70
2022-12-29T14:03:57.179Z,21.35
2022-12-29T14:06:46.443Z,22.38
2022-12-29T14:09:48.529Z,22.45
2022-12-29T14:12:40.040Z,22.80
2022-12-29T14:15:28.149Z,22.63
2022-12-29T14:18:22.350Z,28.27
2022-12-29T14:21:08.315Z,34.03
2022-12-29T14:23:55.127Z,23.80
2022-12-29T14:26:41.208Z,23.38
2022-12-29T14:29:30.009Z,23.60
2022-12-29T14:32:25.991Z,22.75
2022-12-29T14:35:41.049Z,22.40
2022-12-29T14:38:30.084Z,22.00
2022-12-29T14:41:28.878Z,21.15
2022-12-29T14:44:20.658Z,21.43
2022-12-29T14:47:09.283Z,21.08
2022-12-29T14:49:55.988Z,20.45
2022-12-29T14:53:02.517Z,21.20
2022-12-29T14:55:56.688Z,20.58
2022-12-29T14:58:59.973Z,20.90
2022-12-29T15:01:55.891Z,21.15
2022-12-29T15:04:42.960Z,21.03
2022-12-29T15:07:30.183Z,21.73
2022-12-29T15:10:20.956Z,20.43
2022-12-29T15:13:17.374Z,20.65
2022-12-29T15:16:05.006Z,20.23
2022-12-29T15:18:50.848Z,21.33
2022-12-29T15:21:38.159Z,21.42
2022-12-29T15:24:24.848Z,21.07
2022-12-29T15:27:16.864Z,20.52
2022-12-29T15:30:13.811Z,21.83
2022-12-29T15:33:03.729Z,20.90
2022-12-29T15:35:54.130Z,20.27
2022-12-29T15:38:40.856Z,21.58
2022-12-29T15:42:00.488Z,20.70
2022-12-29T15:44:47.989Z,20.73
2022-12-29T15:47:37.598Z,22.05
2022-12-29T15:50:30.115Z,21.73
2022-12-29T15:53:29.038Z,21.42
2022-12-29T15:56:15.687Z,22.17
2022-12-29T15:59:02.344Z,22.92
2022-12-29T16:01:48.112Z,24.77
2022-12-29T16:04:48.668Z,23.95
2022-12-29T16:07:42.249Z,23.80
2022-12-29T16:10:41.604Z,23.27
2022-12-29T16:13:40.038Z,23.48
2022-12-29T16:16:33.573Z,22.58
2022-12-29T16:19:25.802Z,23.35
2022-12-29T16:22:18.946Z,23.35
2022-12-29T16:25:27.051Z,23.20
2022-12-29T16:28:23.101Z,22.10
2022-12-29T16:31:49.193Z,22.13
2022-12-29T16:34:38.617Z,22.05
2022-12-29T16:37:37.253Z,22.00
2022-12-29T16:40:33.424Z,22.67
2022-12-29T16:43:25.059Z,21.77
2022-12-29T16:46:32.108Z,22.25
2022-12-29T16:49:21.732Z,21.85
2022-12-29T16:52:19.247Z,24.83
2022-12-29T16:55:06.344Z,22.88
2022-12-29T16:57:57.248Z,23.35
2022-12-29T17:00:47.640Z,22.70
2022-12-29T17:03:41.703Z,23.10
2022-12-29T17:06:28.863Z,23.58
2022-12-29T17:09:42.017Z,25.70
2022-12-29T17:12:31.399Z,24.83
2022-12-29T17:15:35.202Z,27.15
2022-12-29T17:18:21.743Z,24.20
2022-12-29T17:21:07.417Z,24.35
2022-12-29T17:23:53.931Z,24.83
2022-12-29T17:26:39.825Z,24.58
2022-12-29T17:29:40.370Z,26.60
2022-12-29T17:32:26.869Z,25.08
2022-12-29T17:35:17.099Z,23.90
2022-12-29T17:38:03.413Z,24.33
2022-12-29T17:40:49.495Z,23.63
2022-12-29T17:43:37.173Z,24.65
2022-12-29T17:46:23.252Z,25.17
2022-12-29T17:49:16.580Z,25.65
2022-12-29T17:52:03.514Z,24.88
2022-12-29T17:54:54.144Z,24.38
2022-12-29T17:57:40.667Z,25.40
2022-12-29T18:00:30.795Z,25.48
2022-12-29T18:03:19.196Z,29.90
2022-12-29T18:06:08.289Z,26.52
2022-12-29T18:08:54.054Z,26.00
2022-12-29T18:11:42.484Z,26.48
2022-12-29T18:14:28.412Z,28.92
2022-12-29T18:17:15.005Z,28.70
2022-12-29T18:20:00.811Z,28.85
2022-12-29T18:22:47.337Z,28.07
2022-12-29T18:25:43.135Z,27.67
2022-12-29T18:28:29.875Z,30.10
2022-12-29T18:31:25.359Z,28.50
2022-12-29T18:34:15.433Z,27.47
2022-12-29T18:37:02.975Z,30.20
2022-12-29T18:39:49.046Z,29.73
2022-12-29T18:42:35.029Z,30.00
2022-12-29T18:45:23.599Z,31.05
2022-12-29T18:48:10.349Z,30.75
2022-12-29T18:50:57.352Z,29.23
2022-12-29T18:53:43.443Z,31.50
2022-12-29T18:56:30.017Z,32.25
2022-12-29T18:59:15.805Z,32.15
2022-12-29T19:02:01.896Z,29.75
2022-12-29T19:04:52.736Z,27.20
2022-12-29T19:07:39.342Z,29.02
2022-12-29T19:10:26.333Z,29.83
2022-12-29T19:13:17.914Z,29.55
2022-12-29T19:16:04.301Z,30.48
2022-12-29T19:19:07.895Z,30.07
2022-12-29T19:21:58.126Z,30.75
2022-12-29T19:24:44.017Z,29.88
2022-12-29T19:27:31.791Z,30.05
2022-12-29T19:30:19.533Z,29.70
2022-12-29T19:33:09.736Z,28.60
2022-12-29T19:36:02.117Z,29.13
2022-12-29T19:38:48.370Z,29.38
2022-12-29T19:41:34.684Z,31.98
2022-12-29T19:44:20.592Z,29.90
2022-12-29T19:47:07.012Z,28.02
2022-12-29T19:49:53.205Z,30.13
2022-12-29T19:52:39.032Z,29.40
2022-12-29T19:55:24.924Z,29.73
2022-12-29T19:58:11.489Z,29.38
2022-12-29T20:01:11.098Z,29.75
2022-12-29T20:03:57.802Z,29.60
2022-12-29T20:06:44.619Z,28.98
2022-12-29T20:09:30.962Z,28.90
2022-12-29T20:12:19.915Z,27.60
2022-12-29T20:15:09.349Z,28.50
2022-12-29T20:18:12.988Z,29.05
2022-12-29T20:21:08.638Z,29.08
2022-12-29T20:23:55.125Z,29.75
2022-12-29T20:26:42.508Z,29.75
2022-12-29T20:29:28.469Z,28.63
2022-12-29T20:32:20.641Z,27.70
2022-12-29T20:35:07.402Z,29.20
2022-12-29T20:37:53.726Z,26.55
2022-12-29T20:40:46.276Z,26.03
2022-12-29T20:43:32.706Z,27.88
2022-12-29T20:46:21.854Z,27.65
2022-12-29T20:49:09.581Z,26.92
2022-12-29T20:52:11.168Z,25.85
2022-12-29T20:54:57.777Z,25.83
2022-12-29T20:58:22.142Z,24.98
2022-12-29T21:00:50.937Z,25.10
2022-12-29T21:03:37.008Z,25.30
2022-12-29T21:06:22.733Z,26.43
2022-12-29T21:09:10.019Z,22.67
2022-12-29T21:11:56.192Z,23.45
2022-12-29T21:14:45.634Z,22.08
2022-12-29T21:17:31.914Z,22.42
2022-12-29T21:20:21.521Z,21.75
2022-12-29T21:23:07.786Z,21.42
2022-12-29T21:25:55.252Z,20.13
2022-12-29T21:28:43.452Z,21.20
2022-12-29T21:31:33.592Z,19.00
2022-12-29T21:34:19.751Z,17.70
2022-12-29T21:37:06.646Z,17.63
2022-12-29T21:39:53.061Z,17.25
2022-12-29T21:42:38.937Z,15.77
2022-12-29T21:45:27.660Z,15.13
2022-12-29T21:48:28.885Z,14.68
2022-12-29T21:51:33.201Z,16.07
2022-12-29T21:54:43.503Z,14.15
2022-12-29T21:57:49.424Z,14.10
2022-12-29T22:01:08.940Z,13.90
2022-12-29T22:04:13.489Z,13.65
2022-12-29T22:07:18.429Z,13.70
2022-12-29T22:10:23.752Z,14.63
2022-12-29T22:13:09.848Z,14.65
2022-12-29T22:15:56.156Z,15.35
2022-12-29T22:18:42.218Z,15.25
2022-12-29T22:21:29.052Z,16.55
2022-12-29T22:24:14.810Z,17.27
2022-12-29T22:27:01.005Z,16.95
2022-12-29T22:29:47.411Z,16.85
2022-12-29T22:32:34.039Z,16.52
2022-12-29T22:35:20.208Z,15.10
2022-12-29T22:38:05.745Z,14.85
2022-12-29T22:40:52.090Z,15.35
2022-12-29T22:43:38.479Z,15.27
2022-12-29T22:46:24.254Z,15.65
2022-12-29T22:49:10.029Z,16.30
2022-12-29T22:51:56.401Z,16.77
2022-12-29T22:54:42.758Z,15.82
2022-12-29T22:57:30.454Z,16.10
2022-12-29T23:00:16.592Z,16.27
2022-12-29T23:03:04.093Z,16.20
2022-12-29T23:06:02.464Z,16.60
2022-12-29T23:08:48.526Z,15.90
2022-12-29T23:11:34.851Z,16.42
2022-12-29T23:14:21.286Z,16.70
2022-12-29T23:17:06.747Z,16.73
2022-12-29T23:19:53.432Z,16.05
2022-12-29T23:22:39.832Z,16.15
2022-12-29T23:25:25.968Z,16.70
2022-12-29T23:28:11.763Z,17.15
2022-12-29T23:30:57.700Z,16.15
2022-12-29T23:33:43.733Z,16.65
2022-12-29T23:36:30.509Z,16.65
2022-12-29T23:39:19.709Z,15.80
2022-12-29T23:42:05.293Z,17.15
2022-12-29T23:44:51.433Z,16.27
2022-12-29T23:47:37.533Z,16.90
2022-12-29T23:50:23.722Z,17.55
2022-12-29T23:53:10.486Z,17.23
2022-12-29T23:55:57.125Z,17.15
2022-12-29T23:58:42.871Z,17.95
